sensor_id;sensor_type;location;lat;lon;timestamp;P1;durP1;ratioP1;P2;durP2;ratioP2
59976;SDS011;45837;51.076;3.578;2022-09-12T00:01:45;7.18;;;5.10;;
59976;SDS011;45837;51.076;3.578;2022-09-12T00:04:11;5.90;;;4.78;;
59976;SDS011;45837;51.076;3.578;2022-09-12T00:06:37;6.55;;;5.40;;
59976;SDS011;45837;51.076;3.578;2022-09-12T00:09:05;6.63;;;5.15;;
59976;SDS011;45837;51.076;3.578;2022-09-12T00:11:36;9.55;;;5.30;;
59976;SDS011;45837;51.076;3.578;2022-09-12T00:14:06;10.02;;;5.82;;
59976;SDS011;45837;51.076;3.578;2022-09-12T00:16:34;8.15;;;5.10;;
59976;SDS011;45837;51.076;3.578;2022-09-12T00:19:02;6.85;;;5.30;;
59976;SDS011;45837;51.076;3.578;2022-09-12T00:21:29;7.82;;;5.68;;
59976;SDS011;45837;51.076;3.578;2022-09-12T00:23:57;9.65;;;5.53;;
59976;SDS011;45837;51.076;3.578;2022-09-12T00:26:23;6.70;;;5.70;;
59976;SDS011;45837;51.076;3.578;2022-09-12T00:28:49;9.00;;;5.72;;
59976;SDS011;45837;51.076;3.578;2022-09-12T00:31:17;6.90;;;5.53;;
59976;SDS011;45837;51.076;3.578;2022-09-12T00:33:45;8.05;;;6.28;;
59976;SDS011;45837;51.076;3.578;2022-09-12T00:36:15;6.57;;;5.68;;
59976;SDS011;45837;51.076;3.578;2022-09-12T00:38:43;7.50;;;5.97;;
59976;SDS011;45837;51.076;3.578;2022-09-12T00:41:20;6.65;;;5.55;;
59976;SDS011;45837;51.076;3.578;2022-09-12T00:43:52;8.23;;;6.18;;
59976;SDS011;45837;51.076;3.578;2022-09-12T00:49:50;9.43;;;6.38;;
59976;SDS011;45837;51.076;3.578;2022-09-12T00:52:08;8.38;;;6.47;;
59976;SDS011;45837;51.076;3.578;2022-09-12T00:54:46;8.38;;;5.72;;
59976;SDS011;45837;51.076;3.578;2022-09-12T00:57:20;10.13;;;6.45;;
59976;SDS011;45837;51.076;3.578;2022-09-12T00:59:50;6.95;;;5.63;;
59976;SDS011;45837;51.076;3.578;2022-09-12T01:02:20;8.25;;;6.18;;
59976;SDS011;45837;51.076;3.578;2022-09-12T01:04:47;7.40;;;5.85;;
59976;SDS011;45837;51.076;3.578;2022-09-12T01:07:13;9.15;;;6.63;;
59976;SDS011;45837;51.076;3.578;2022-09-12T01:09:39;7.20;;;5.85;;
59976;SDS011;45837;51.076;3.578;2022-09-12T01:12:07;8.30;;;6.47;;
59976;SDS011;45837;51.076;3.578;2022-09-12T01:14:33;8.18;;;5.80;;
59976;SDS011;45837;51.076;3.578;2022-09-12T01:16:59;8.50;;;6.35;;
59976;SDS011;45837;51.076;3.578;2022-09-12T01:19:47;8.18;;;6.53;;
59976;SDS011;45837;51.076;3.578;2022-09-12T01:25:30;6.60;;;5.68;;
59976;SDS011;45837;51.076;3.578;2022-09-12T01:31:07;5.97;;;5.03;;
59976;SDS011;45837;51.076;3.578;2022-09-12T01:33:58;6.00;;;4.85;;
59976;SDS011;45837;51.076;3.578;2022-09-12T01:36:40;6.00;;;4.95;;
59976;SDS011;45837;51.076;3.578;2022-09-12T01:39:19;5.85;;;5.03;;
59976;SDS011;45837;51.076;3.578;2022-09-12T01:45:35;6.05;;;4.95;;
59976;SDS011;45837;51.076;3.578;2022-09-12T01:47:50;9.65;;;5.20;;
59976;SDS011;45837;51.076;3.578;2022-09-12T01:50:26;9.98;;;5.32;;
59976;SDS011;45837;51.076;3.578;2022-09-12T01:53:03;8.38;;;5.28;;
59976;SDS011;45837;51.076;3.578;2022-09-12T01:55:39;8.07;;;5.32;;
59976;SDS011;45837;51.076;3.578;2022-09-12T01:58:20;11.20;;;5.63;;
59976;SDS011;45837;51.076;3.578;2022-09-12T02:03:37;9.10;;;6.35;;
59976;SDS011;45837;51.076;3.578;2022-09-12T02:06:11;7.72;;;6.05;;
59976;SDS011;45837;51.076;3.578;2022-09-12T02:08:58;7.20;;;5.45;;
59976;SDS011;45837;51.076;3.578;2022-09-12T02:11:36;8.15;;;5.70;;
59976;SDS011;45837;51.076;3.578;2022-09-12T02:14:07;9.52;;;5.93;;
59976;SDS011;45837;51.076;3.578;2022-09-12T02:16:40;7.10;;;5.45;;
59976;SDS011;45837;51.076;3.578;2022-09-12T02:19:14;7.75;;;5.97;;
59976;SDS011;45837;51.076;3.578;2022-09-12T02:21:50;7.80;;;5.90;;
59976;SDS011;45837;51.076;3.578;2022-09-12T02:24:18;8.07;;;5.47;;
59976;SDS011;45837;51.076;3.578;2022-09-12T02:26:54;6.93;;;5.57;;
59976;SDS011;45837;51.076;3.578;2022-09-12T02:29:23;10.73;;;6.10;;
59976;SDS011;45837;51.076;3.578;2022-09-12T02:31:59;7.68;;;5.38;;
59976;SDS011;45837;51.076;3.578;2022-09-12T02:39:30;7.65;;;6.15;;
59976;SDS011;45837;51.076;3.578;2022-09-12T02:41:57;13.40;;;6.10;;
59976;SDS011;45837;51.076;3.578;2022-09-12T02:44:25;8.10;;;6.18;;
59976;SDS011;45837;51.076;3.578;2022-09-12T02:46:54;7.50;;;5.65;;
59976;SDS011;45837;51.076;3.578;2022-09-12T02:49:23;10.30;;;6.43;;
59976;SDS011;45837;51.076;3.578;2022-09-12T02:51:49;10.98;;;6.20;;
59976;SDS011;45837;51.076;3.578;2022-09-12T02:54:15;8.10;;;5.82;;
59976;SDS011;45837;51.076;3.578;2022-09-12T02:56:43;10.73;;;5.93;;
59976;SDS011;45837;51.076;3.578;2022-09-12T02:59:10;8.50;;;5.45;;
59976;SDS011;45837;51.076;3.578;2022-09-12T03:04:51;7.65;;;5.38;;
59976;SDS011;45837;51.076;3.578;2022-09-12T03:18:00;8.48;;;5.50;;
59976;SDS011;45837;51.076;3.578;2022-09-12T03:20:34;6.28;;;5.32;;
59976;SDS011;45837;51.076;3.578;2022-09-12T03:28:56;5.88;;;4.93;;
59976;SDS011;45837;51.076;3.578;2022-09-12T03:31:23;6.18;;;4.40;;
59976;SDS011;45837;51.076;3.578;2022-09-12T03:33:50;6.13;;;4.68;;
59976;SDS011;45837;51.076;3.578;2022-09-12T03:36:18;5.95;;;4.78;;
59976;SDS011;45837;51.076;3.578;2022-09-12T03:38:47;6.38;;;4.75;;
59976;SDS011;45837;51.076;3.578;2022-09-12T03:41:13;5.97;;;4.50;;
59976;SDS011;45837;51.076;3.578;2022-09-12T03:43:38;6.45;;;4.00;;
59976;SDS011;45837;51.076;3.578;2022-09-12T03:46:04;6.07;;;4.78;;
59976;SDS011;45837;51.076;3.578;2022-09-12T03:48:30;6.43;;;4.10;;
59976;SDS011;45837;51.076;3.578;2022-09-12T03:51:03;6.65;;;4.60;;
59976;SDS011;45837;51.076;3.578;2022-09-12T03:53:31;6.38;;;4.40;;
59976;SDS011;45837;51.076;3.578;2022-09-12T03:55:57;6.53;;;4.47;;
59976;SDS011;45837;51.076;3.578;2022-09-12T03:58:23;6.43;;;4.68;;
59976;SDS011;45837;51.076;3.578;2022-09-12T04:00:49;5.70;;;4.68;;
59976;SDS011;45837;51.076;3.578;2022-09-12T04:03:15;5.45;;;4.68;;
59976;SDS011;45837;51.076;3.578;2022-09-12T04:05:43;5.38;;;4.45;;
59976;SDS011;45837;51.076;3.578;2022-09-12T04:08:09;4.82;;;4.22;;
59976;SDS011;45837;51.076;3.578;2022-09-12T04:10:34;5.50;;;4.30;;
59976;SDS011;45837;51.076;3.578;2022-09-12T04:13:00;5.05;;;4.22;;
59976;SDS011;45837;51.076;3.578;2022-09-12T04:15:26;6.25;;;4.03;;
59976;SDS011;45837;51.076;3.578;2022-09-12T04:17:51;5.13;;;4.15;;
59976;SDS011;45837;51.076;3.578;2022-09-12T04:20:17;4.97;;;3.67;;
59976;SDS011;45837;51.076;3.578;2022-09-12T04:22:43;6.97;;;4.35;;
59976;SDS011;45837;51.076;3.578;2022-09-12T04:25:09;5.10;;;4.10;;
59976;SDS011;45837;51.076;3.578;2022-09-12T04:27:35;4.57;;;3.60;;
59976;SDS011;45837;51.076;3.578;2022-09-12T04:30:02;5.05;;;3.75;;
59976;SDS011;45837;51.076;3.578;2022-09-12T04:32:28;4.22;;;3.10;;
59976;SDS011;45837;51.076;3.578;2022-09-12T04:34:55;4.00;;;3.42;;
59976;SDS011;45837;51.076;3.578;2022-09-12T04:37:21;4.15;;;3.30;;
59976;SDS011;45837;51.076;3.578;2022-09-12T04:39:48;5.32;;;3.38;;
59976;SDS011;45837;51.076;3.578;2022-09-12T04:42:14;4.72;;;3.15;;
59976;SDS011;45837;51.076;3.578;2022-09-12T04:44:40;4.60;;;2.80;;
59976;SDS011;45837;51.076;3.578;2022-09-12T04:47:06;5.68;;;3.55;;
59976;SDS011;45837;51.076;3.578;2022-09-12T04:49:32;5.93;;;3.15;;
59976;SDS011;45837;51.076;3.578;2022-09-12T04:51:58;7.05;;;2.92;;
59976;SDS011;45837;51.076;3.578;2022-09-12T04:54:24;4.38;;;3.25;;
59976;SDS011;45837;51.076;3.578;2022-09-12T04:56:50;4.45;;;3.17;;
59976;SDS011;45837;51.076;3.578;2022-09-12T04:59:18;4.47;;;2.90;;
59976;SDS011;45837;51.076;3.578;2022-09-12T05:01:52;3.28;;;2.47;;
59976;SDS011;45837;51.076;3.578;2022-09-12T05:04:18;4.05;;;2.60;;
59976;SDS011;45837;51.076;3.578;2022-09-12T05:06:44;4.60;;;3.00;;
59976;SDS011;45837;51.076;3.578;2022-09-12T05:09:11;6.75;;;3.25;;
59976;SDS011;45837;51.076;3.578;2022-09-12T05:11:39;3.08;;;2.35;;
59976;SDS011;45837;51.076;3.578;2022-09-12T05:14:07;5.70;;;2.50;;
59976;SDS011;45837;51.076;3.578;2022-09-12T05:16:35;4.50;;;2.63;;
59976;SDS011;45837;51.076;3.578;2022-09-12T05:19:01;6.55;;;2.25;;
59976;SDS011;45837;51.076;3.578;2022-09-12T05:21:27;6.75;;;2.17;;
59976;SDS011;45837;51.076;3.578;2022-09-12T05:23:53;2.92;;;2.13;;
59976;SDS011;45837;51.076;3.578;2022-09-12T05:26:20;3.75;;;1.95;;
59976;SDS011;45837;51.076;3.578;2022-09-12T05:28:47;5.32;;;2.85;;
59976;SDS011;45837;51.076;3.578;2022-09-12T05:31:15;11.68;;;2.60;;
59976;SDS011;45837;51.076;3.578;2022-09-12T05:33:43;4.90;;;2.40;;
59976;SDS011;45837;51.076;3.578;2022-09-12T05:36:14;7.75;;;2.42;;
59976;SDS011;45837;51.076;3.578;2022-09-12T05:38:42;7.00;;;2.33;;
59976;SDS011;45837;51.076;3.578;2022-09-12T05:41:10;4.47;;;2.25;;
59976;SDS011;45837;51.076;3.578;2022-09-12T05:43:38;9.63;;;2.50;;
59976;SDS011;45837;51.076;3.578;2022-09-12T05:46:10;3.28;;;2.35;;
59976;SDS011;45837;51.076;3.578;2022-09-12T05:48:38;9.98;;;3.50;;
59976;SDS011;45837;51.076;3.578;2022-09-12T05:51:06;8.10;;;3.67;;
59976;SDS011;45837;51.076;3.578;2022-09-12T05:53:49;8.57;;;3.35;;
59976;SDS011;45837;51.076;3.578;2022-09-12T05:56:22;6.40;;;3.80;;
59976;SDS011;45837;51.076;3.578;2022-09-12T05:59:31;10.10;;;4.22;;
59976;SDS011;45837;51.076;3.578;2022-09-12T06:01:38;8.80;;;3.40;;
59976;SDS011;45837;51.076;3.578;2022-09-12T06:04:04;6.10;;;2.80;;
59976;SDS011;45837;51.076;3.578;2022-09-12T06:06:31;7.30;;;3.33;;
59976;SDS011;45837;51.076;3.578;2022-09-12T06:09:02;7.95;;;2.70;;
59976;SDS011;45837;51.076;3.578;2022-09-12T06:11:31;7.03;;;3.03;;
59976;SDS011;45837;51.076;3.578;2022-09-12T06:13:58;8.13;;;2.22;;
59976;SDS011;45837;51.076;3.578;2022-09-12T06:16:28;6.13;;;2.90;;
59976;SDS011;45837;51.076;3.578;2022-09-12T06:18:57;6.07;;;3.03;;
59976;SDS011;45837;51.076;3.578;2022-09-12T06:21:27;3.28;;;2.65;;
59976;SDS011;45837;51.076;3.578;2022-09-12T06:23:59;7.85;;;2.60;;
59976;SDS011;45837;51.076;3.578;2022-09-12T06:26:26;3.88;;;2.70;;
59976;SDS011;45837;51.076;3.578;2022-09-12T06:28:53;7.47;;;2.72;;
59976;SDS011;45837;51.076;3.578;2022-09-12T06:31:25;11.65;;;2.67;;
59976;SDS011;45837;51.076;3.578;2022-09-12T06:33:53;4.57;;;3.10;;
59976;SDS011;45837;51.076;3.578;2022-09-12T06:36:21;4.78;;;2.15;;
59976;SDS011;45837;51.076;3.578;2022-09-12T06:38:55;4.82;;;1.95;;
59976;SDS011;45837;51.076;3.578;2022-09-12T06:41:23;5.95;;;2.10;;
59976;SDS011;45837;51.076;3.578;2022-09-12T06:43:49;5.18;;;2.28;;
59976;SDS011;45837;51.076;3.578;2022-09-12T06:46:15;4.32;;;2.58;;
59976;SDS011;45837;51.076;3.578;2022-09-12T06:48:41;4.47;;;2.35;;
59976;SDS011;45837;51.076;3.578;2022-09-12T06:51:11;4.95;;;2.60;;
59976;SDS011;45837;51.076;3.578;2022-09-12T06:53:38;6.82;;;2.67;;
59976;SDS011;45837;51.076;3.578;2022-09-12T06:56:15;5.00;;;2.70;;
59976;SDS011;45837;51.076;3.578;2022-09-12T06:58:43;4.03;;;2.63;;
59976;SDS011;45837;51.076;3.578;2022-09-12T07:01:13;4.45;;;2.28;;
59976;SDS011;45837;51.076;3.578;2022-09-12T07:03:46;4.53;;;2.70;;
59976;SDS011;45837;51.076;3.578;2022-09-12T07:06:14;3.50;;;2.35;;
59976;SDS011;45837;51.076;3.578;2022-09-12T07:08:42;6.30;;;2.88;;
59976;SDS011;45837;51.076;3.578;2022-09-12T07:13:36;4.82;;;2.95;;
59976;SDS011;45837;51.076;3.578;2022-09-12T07:16:02;3.95;;;2.45;;
59976;SDS011;45837;51.076;3.578;2022-09-12T07:18:30;5.05;;;2.97;;
59976;SDS011;45837;51.076;3.578;2022-09-12T07:20:58;4.43;;;2.72;;
59976;SDS011;45837;51.076;3.578;2022-09-12T07:23:27;5.45;;;2.83;;
59976;SDS011;45837;51.076;3.578;2022-09-12T07:25:54;5.15;;;2.85;;
59976;SDS011;45837;51.076;3.578;2022-09-12T07:28:22;4.38;;;2.63;;
59976;SDS011;45837;51.076;3.578;2022-09-12T07:30:48;5.07;;;2.42;;
59976;SDS011;45837;51.076;3.578;2022-09-12T07:33:15;6.35;;;3.40;;
59976;SDS011;45837;51.076;3.578;2022-09-12T07:35:41;5.88;;;3.00;;
59976;SDS011;45837;51.076;3.578;2022-09-12T07:38:07;5.88;;;3.13;;
59976;SDS011;45837;51.076;3.578;2022-09-12T07:40:33;5.03;;;3.20;;
59976;SDS011;45837;51.076;3.578;2022-09-12T07:42:59;4.45;;;3.15;;
59976;SDS011;45837;51.076;3.578;2022-09-12T07:45:24;5.07;;;2.83;;
59976;SDS011;45837;51.076;3.578;2022-09-12T07:47:54;4.82;;;3.17;;
59976;SDS011;45837;51.076;3.578;2022-09-12T07:50:19;4.78;;;3.20;;
59976;SDS011;45837;51.076;3.578;2022-09-12T07:52:45;5.57;;;3.28;;
59976;SDS011;45837;51.076;3.578;2022-09-12T07:55:11;8.93;;;2.60;;
59976;SDS011;45837;51.076;3.578;2022-09-12T07:57:37;4.85;;;2.83;;
59976;SDS011;45837;51.076;3.578;2022-09-12T08:00:03;6.10;;;2.78;;
59976;SDS011;45837;51.076;3.578;2022-09-12T08:02:37;6.03;;;3.00;;
59976;SDS011;45837;51.076;3.578;2022-09-12T08:05:03;3.92;;;2.70;;
59976;SDS011;45837;51.076;3.578;2022-09-12T08:07:29;7.43;;;3.45;;
59976;SDS011;45837;51.076;3.578;2022-09-12T08:09:55;5.28;;;3.05;;
59976;SDS011;45837;51.076;3.578;2022-09-12T08:12:21;7.78;;;2.85;;
59976;SDS011;45837;51.076;3.578;2022-09-12T08:14:46;4.63;;;2.88;;
59976;SDS011;45837;51.076;3.578;2022-09-12T08:17:12;7.43;;;3.00;;
59976;SDS011;45837;51.076;3.578;2022-09-12T08:19:38;4.63;;;3.10;;
59976;SDS011;45837;51.076;3.578;2022-09-12T08:22:04;5.43;;;3.35;;
59976;SDS011;45837;51.076;3.578;2022-09-12T08:24:30;7.45;;;3.10;;
59976;SDS011;45837;51.076;3.578;2022-09-12T08:26:56;5.35;;;3.53;;
59976;SDS011;45837;51.076;3.578;2022-09-12T08:29:22;7.47;;;3.35;;
59976;SDS011;45837;51.076;3.578;2022-09-12T08:31:47;5.22;;;2.97;;
59976;SDS011;45837;51.076;3.578;2022-09-12T08:34:13;5.60;;;3.35;;
59976;SDS011;45837;51.076;3.578;2022-09-12T08:36:41;5.50;;;3.22;;
59976;SDS011;45837;51.076;3.578;2022-09-12T08:39:06;8.43;;;3.92;;
59976;SDS011;45837;51.076;3.578;2022-09-12T08:41:40;4.78;;;3.15;;
59976;SDS011;45837;51.076;3.578;2022-09-12T08:44:30;6.90;;;3.35;;
59976;SDS011;45837;51.076;3.578;2022-09-12T08:52:12;7.05;;;4.53;;
59976;SDS011;45837;51.076;3.578;2022-09-12T08:54:43;8.35;;;6.10;;
59976;SDS011;45837;51.076;3.578;2022-09-12T08:57:09;8.88;;;6.40;;
59976;SDS011;45837;51.076;3.578;2022-09-12T08:59:37;7.40;;;6.57;;
59976;SDS011;45837;51.076;3.578;2022-09-12T09:17:00;8.70;;;6.90;;
59976;SDS011;45837;51.076;3.578;2022-09-12T09:19:29;9.40;;;6.07;;
59976;SDS011;45837;51.076;3.578;2022-09-12T09:22:02;8.30;;;6.07;;
59976;SDS011;45837;51.076;3.578;2022-09-12T09:24:38;6.93;;;5.18;;
59976;SDS011;45837;51.076;3.578;2022-09-12T09:27:13;8.57;;;5.05;;
59976;SDS011;45837;51.076;3.578;2022-09-12T09:30:00;6.45;;;4.90;;
59976;SDS011;45837;51.076;3.578;2022-09-12T09:32:29;7.47;;;5.15;;
59976;SDS011;45837;51.076;3.578;2022-09-12T09:35:14;5.70;;;4.28;;
59976;SDS011;45837;51.076;3.578;2022-09-12T09:37:41;6.40;;;4.20;;
59976;SDS011;45837;51.076;3.578;2022-09-12T09:43:00;6.60;;;3.88;;
59976;SDS011;45837;51.076;3.578;2022-09-12T09:45:44;6.25;;;3.25;;
59976;SDS011;45837;51.076;3.578;2022-09-12T09:48:18;17.77;;;4.22;;
59976;SDS011;45837;51.076;3.578;2022-09-12T09:50:52;5.65;;;3.20;;
59976;SDS011;45837;51.076;3.578;2022-09-12T09:53:24;6.45;;;3.33;;
59976;SDS011;45837;51.076;3.578;2022-09-12T09:58:53;9.43;;;3.05;;
59976;SDS011;45837;51.076;3.578;2022-09-12T10:01:19;5.78;;;2.72;;
59976;SDS011;45837;51.076;3.578;2022-09-12T10:03:52;9.02;;;3.10;;
59976;SDS011;45837;51.076;3.578;2022-09-12T10:08:47;6.78;;;3.15;;
59976;SDS011;45837;51.076;3.578;2022-09-12T10:18:53;6.15;;;2.38;;
59976;SDS011;45837;51.076;3.578;2022-09-12T10:27:04;7.15;;;3.05;;
59976;SDS011;45837;51.076;3.578;2022-09-12T10:32:35;3.33;;;2.10;;
59976;SDS011;45837;51.076;3.578;2022-09-12T10:35:03;4.38;;;2.38;;
59976;SDS011;45837;51.076;3.578;2022-09-12T10:37:37;3.92;;;2.35;;
59976;SDS011;45837;51.076;3.578;2022-09-12T10:40:18;7.43;;;2.63;;
59976;SDS011;45837;51.076;3.578;2022-09-12T10:42:50;7.82;;;2.17;;
59976;SDS011;45837;51.076;3.578;2022-09-12T10:45:22;6.82;;;2.30;;
59976;SDS011;45837;51.076;3.578;2022-09-12T10:47:55;4.40;;;2.10;;
59976;SDS011;45837;51.076;3.578;2022-09-12T10:50:30;4.65;;;2.20;;
59976;SDS011;45837;51.076;3.578;2022-09-12T10:56:02;6.27;;;2.30;;
59976;SDS011;45837;51.076;3.578;2022-09-12T11:04:15;4.28;;;2.50;;
59976;SDS011;45837;51.076;3.578;2022-09-12T11:07:05;4.93;;;2.28;;
59976;SDS011;45837;51.076;3.578;2022-09-12T11:15:26;3.78;;;2.10;;
59976;SDS011;45837;51.076;3.578;2022-09-12T11:21:11;9.82;;;2.33;;
59976;SDS011;45837;51.076;3.578;2022-09-12T11:26:41;7.03;;;3.20;;
59976;SDS011;45837;51.076;3.578;2022-09-12T11:34:32;6.25;;;2.45;;
59976;SDS011;45837;51.076;3.578;2022-09-12T11:39:55;6.78;;;2.05;;
59976;SDS011;45837;51.076;3.578;2022-09-12T11:42:30;4.32;;;2.13;;
59976;SDS011;45837;51.076;3.578;2022-09-12T11:45:21;3.83;;;2.17;;
59976;SDS011;45837;51.076;3.578;2022-09-12T11:47:54;6.28;;;2.10;;
59976;SDS011;45837;51.076;3.578;2022-09-12T11:50:26;5.55;;;2.38;;
59976;SDS011;45837;51.076;3.578;2022-09-12T11:52:54;4.07;;;1.77;;
59976;SDS011;45837;51.076;3.578;2022-09-12T11:55:30;4.45;;;2.00;;
59976;SDS011;45837;51.076;3.578;2022-09-12T11:58:11;3.95;;;1.83;;
59976;SDS011;45837;51.076;3.578;2022-09-12T12:00:40;4.47;;;2.38;;
59976;SDS011;45837;51.076;3.578;2022-09-12T12:03:13;3.90;;;2.00;;
59976;SDS011;45837;51.076;3.578;2022-09-12T12:06:11;3.42;;;1.70;;
59976;SDS011;45837;51.076;3.578;2022-09-12T12:08:49;5.80;;;1.87;;
59976;SDS011;45837;51.076;3.578;2022-09-12T12:11:29;8.13;;;2.30;;
59976;SDS011;45837;51.076;3.578;2022-09-12T12:14:04;5.13;;;2.17;;
59976;SDS011;45837;51.076;3.578;2022-09-12T12:16:37;4.53;;;1.65;;
59976;SDS011;45837;51.076;3.578;2022-09-12T12:29:03;4.22;;;1.77;;
59976;SDS011;45837;51.076;3.578;2022-09-12T12:34:37;3.60;;;1.80;;
59976;SDS011;45837;51.076;3.578;2022-09-12T12:44:57;4.78;;;2.38;;
59976;SDS011;45837;51.076;3.578;2022-09-12T12:55:27;4.63;;;2.15;;
59976;SDS011;45837;51.076;3.578;2022-09-12T12:58:06;4.50;;;2.10;;
59976;SDS011;45837;51.076;3.578;2022-09-12T13:00:45;7.20;;;1.73;;
59976;SDS011;45837;51.076;3.578;2022-09-12T13:03:21;7.03;;;1.90;;
59976;SDS011;45837;51.076;3.578;2022-09-12T13:05:56;5.75;;;1.73;;
59976;SDS011;45837;51.076;3.578;2022-09-12T13:08:33;6.25;;;1.88;;
59976;SDS011;45837;51.076;3.578;2022-09-12T13:11:15;8.85;;;1.77;;
59976;SDS011;45837;51.076;3.578;2022-09-12T13:14:06;5.28;;;1.90;;
59976;SDS011;45837;51.076;3.578;2022-09-12T13:16:52;7.40;;;2.08;;
59976;SDS011;45837;51.076;3.578;2022-09-12T13:19:32;3.97;;;1.63;;
59976;SDS011;45837;51.076;3.578;2022-09-12T13:22:05;5.72;;;1.63;;
59976;SDS011;45837;51.076;3.578;2022-09-12T13:24:33;6.53;;;2.22;;
59976;SDS011;45837;51.076;3.578;2022-09-12T13:29:47;4.70;;;1.67;;
59976;SDS011;45837;51.076;3.578;2022-09-12T13:32:14;3.42;;;1.83;;
59976;SDS011;45837;51.076;3.578;2022-09-12T13:43:42;8.50;;;1.98;;
59976;SDS011;45837;51.076;3.578;2022-09-12T13:46:11;9.52;;;1.80;;
59976;SDS011;45837;51.076;3.578;2022-09-12T13:48:40;3.88;;;2.05;;
59976;SDS011;45837;51.076;3.578;2022-09-12T13:51:12;3.05;;;1.40;;
59976;SDS011;45837;51.076;3.578;2022-09-12T13:53:52;3.60;;;1.63;;
59976;SDS011;45837;51.076;3.578;2022-09-12T13:56:21;3.42;;;1.40;;
59976;SDS011;45837;51.076;3.578;2022-09-12T13:58:51;2.72;;;1.40;;
59976;SDS011;45837;51.076;3.578;2022-09-12T14:01:22;6.53;;;1.70;;
59976;SDS011;45837;51.076;3.578;2022-09-12T14:03:53;5.10;;;1.70;;
59976;SDS011;45837;51.076;3.578;2022-09-12T14:11:55;3.58;;;1.58;;
59976;SDS011;45837;51.076;3.578;2022-09-12T14:16:58;6.68;;;1.55;;
59976;SDS011;45837;51.076;3.578;2022-09-12T14:19:25;5.88;;;1.80;;
59976;SDS011;45837;51.076;3.578;2022-09-12T14:21:53;3.25;;;1.40;;
59976;SDS011;45837;51.076;3.578;2022-09-12T14:24:21;3.60;;;1.85;;
59976;SDS011;45837;51.076;3.578;2022-09-12T14:26:49;4.72;;;1.27;;
59976;SDS011;45837;51.076;3.578;2022-09-12T14:29:20;4.45;;;1.88;;
59976;SDS011;45837;51.076;3.578;2022-09-12T14:32:21;4.60;;;1.73;;
59976;SDS011;45837;51.076;3.578;2022-09-12T14:37:35;3.85;;;1.60;;
59976;SDS011;45837;51.076;3.578;2022-09-12T14:40:02;7.95;;;1.58;;
59976;SDS011;45837;51.076;3.578;2022-09-12T14:42:40;4.78;;;1.58;;
59976;SDS011;45837;51.076;3.578;2022-09-12T14:45:15;3.08;;;1.50;;
59976;SDS011;45837;51.076;3.578;2022-09-12T14:47:47;3.55;;;1.30;;
59976;SDS011;45837;51.076;3.578;2022-09-12T14:50:15;4.28;;;1.50;;
59976;SDS011;45837;51.076;3.578;2022-09-12T14:52:44;3.78;;;1.48;;
59976;SDS011;45837;51.076;3.578;2022-09-12T14:58:28;5.15;;;1.35;;
59976;SDS011;45837;51.076;3.578;2022-09-12T15:03:23;2.97;;;1.20;;
59976;SDS011;45837;51.076;3.578;2022-09-12T15:05:51;4.30;;;1.60;;
59976;SDS011;45837;51.076;3.578;2022-09-12T15:08:17;12.38;;;1.60;;
59976;SDS011;45837;51.076;3.578;2022-09-12T15:10:43;4.07;;;1.45;;
59976;SDS011;45837;51.076;3.578;2022-09-12T15:13:10;3.80;;;1.58;;
59976;SDS011;45837;51.076;3.578;2022-09-12T15:15:39;3.88;;;1.38;;
59976;SDS011;45837;51.076;3.578;2022-09-12T15:18:09;7.28;;;1.40;;
59976;SDS011;45837;51.076;3.578;2022-09-12T15:20:37;2.70;;;1.40;;
59976;SDS011;45837;51.076;3.578;2022-09-12T15:23:05;3.67;;;1.33;;
59976;SDS011;45837;51.076;3.578;2022-09-12T15:25:34;6.38;;;1.55;;
59976;SDS011;45837;51.076;3.578;2022-09-12T15:28:00;3.53;;;1.55;;
59976;SDS011;45837;51.076;3.578;2022-09-12T15:30:29;6.03;;;1.52;;
59976;SDS011;45837;51.076;3.578;2022-09-12T15:32:55;5.10;;;1.45;;
59976;SDS011;45837;51.076;3.578;2022-09-12T15:35:24;3.53;;;1.40;;
59976;SDS011;45837;51.076;3.578;2022-09-12T15:37:50;6.65;;;1.50;;
59976;SDS011;45837;51.076;3.578;2022-09-12T15:40:16;12.35;;;1.38;;
59976;SDS011;45837;51.076;3.578;2022-09-12T15:42:42;15.77;;;2.38;;
59976;SDS011;45837;51.076;3.578;2022-09-12T15:47:37;9.90;;;1.70;;
59976;SDS011;45837;51.076;3.578;2022-09-12T15:50:03;12.98;;;2.13;;
59976;SDS011;45837;51.076;3.578;2022-09-12T15:52:29;6.88;;;2.03;;
59976;SDS011;45837;51.076;3.578;2022-09-12T15:54:55;12.52;;;1.77;;
59976;SDS011;45837;51.076;3.578;2022-09-12T15:57:21;7.43;;;1.73;;
59976;SDS011;45837;51.076;3.578;2022-09-12T15:59:47;8.98;;;1.50;;
59976;SDS011;45837;51.076;3.578;2022-09-12T16:02:12;10.32;;;2.13;;
59976;SDS011;45837;51.076;3.578;2022-09-12T16:04:38;5.78;;;1.90;;
59976;SDS011;45837;51.076;3.578;2022-09-12T16:07:04;17.98;;;2.35;;
59976;SDS011;45837;51.076;3.578;2022-09-12T16:09:30;9.23;;;1.85;;
59976;SDS011;45837;51.076;3.578;2022-09-12T16:11:55;12.07;;;1.75;;
59976;SDS011;45837;51.076;3.578;2022-09-12T16:14:21;7.95;;;1.98;;
59976;SDS011;45837;51.076;3.578;2022-09-12T16:16:50;14.70;;;1.63;;
59976;SDS011;45837;51.076;3.578;2022-09-12T16:19:18;10.40;;;2.13;;
59976;SDS011;45837;51.076;3.578;2022-09-12T16:21:43;6.25;;;1.75;;
59976;SDS011;45837;51.076;3.578;2022-09-12T16:24:09;18.80;;;1.98;;
59976;SDS011;45837;51.076;3.578;2022-09-12T16:26:35;11.13;;;1.88;;
59976;SDS011;45837;51.076;3.578;2022-09-12T16:29:01;21.05;;;2.13;;
59976;SDS011;45837;51.076;3.578;2022-09-12T16:31:27;17.55;;;2.25;;
59976;SDS011;45837;51.076;3.578;2022-09-12T16:33:53;5.90;;;1.63;;
59976;SDS011;45837;51.076;3.578;2022-09-12T16:36:19;12.32;;;1.70;;
59976;SDS011;45837;51.076;3.578;2022-09-12T16:38:47;6.80;;;1.83;;
59976;SDS011;45837;51.076;3.578;2022-09-12T16:41:18;10.13;;;1.80;;
59976;SDS011;45837;51.076;3.578;2022-09-12T16:43:45;7.38;;;1.63;;
59976;SDS011;45837;51.076;3.578;2022-09-12T16:46:13;8.00;;;1.85;;
59976;SDS011;45837;51.076;3.578;2022-09-12T16:48:58;9.75;;;1.67;;
59976;SDS011;45837;51.076;3.578;2022-09-12T16:51:25;9.55;;;1.75;;
59976;SDS011;45837;51.076;3.578;2022-09-12T16:54:00;17.30;;;2.33;;
59976;SDS011;45837;51.076;3.578;2022-09-12T16:56:26;5.22;;;1.65;;
59976;SDS011;45837;51.076;3.578;2022-09-12T16:58:52;9.88;;;1.75;;
59976;SDS011;45837;51.076;3.578;2022-09-12T17:01:19;6.80;;;1.52;;
59976;SDS011;45837;51.076;3.578;2022-09-12T17:03:47;4.43;;;1.45;;
59976;SDS011;45837;51.076;3.578;2022-09-12T17:06:17;12.68;;;1.80;;
59976;SDS011;45837;51.076;3.578;2022-09-12T17:08:44;3.38;;;1.50;;
59976;SDS011;45837;51.076;3.578;2022-09-12T17:11:13;8.65;;;1.80;;
59976;SDS011;45837;51.076;3.578;2022-09-12T17:13:47;4.00;;;1.33;;
59976;SDS011;45837;51.076;3.578;2022-09-12T17:16:13;5.00;;;1.65;;
59976;SDS011;45837;51.076;3.578;2022-09-12T17:18:39;5.03;;;1.60;;
59976;SDS011;45837;51.076;3.578;2022-09-12T17:21:06;4.95;;;1.60;;
59976;SDS011;45837;51.076;3.578;2022-09-12T17:23:32;6.22;;;1.55;;
59976;SDS011;45837;51.076;3.578;2022-09-12T17:25:59;3.70;;;1.30;;
59976;SDS011;45837;51.076;3.578;2022-09-12T17:28:25;7.53;;;1.55;;
59976;SDS011;45837;51.076;3.578;2022-09-12T17:30:54;4.47;;;1.60;;
59976;SDS011;45837;51.076;3.578;2022-09-12T17:33:21;9.02;;;1.42;;
59976;SDS011;45837;51.076;3.578;2022-09-12T17:35:47;8.32;;;1.80;;
59976;SDS011;45837;51.076;3.578;2022-09-12T17:38:13;7.75;;;1.70;;
59976;SDS011;45837;51.076;3.578;2022-09-12T17:40:39;4.68;;;1.75;;
59976;SDS011;45837;51.076;3.578;2022-09-12T17:43:05;5.50;;;1.70;;
59976;SDS011;45837;51.076;3.578;2022-09-12T17:45:31;6.05;;;1.58;;
59976;SDS011;45837;51.076;3.578;2022-09-12T17:47:57;7.85;;;1.88;;
59976;SDS011;45837;51.076;3.578;2022-09-12T17:50:23;5.53;;;1.60;;
59976;SDS011;45837;51.076;3.578;2022-09-12T17:52:49;6.00;;;1.88;;
59976;SDS011;45837;51.076;3.578;2022-09-12T17:55:15;7.35;;;2.10;;
59976;SDS011;45837;51.076;3.578;2022-09-12T17:57:41;9.05;;;2.50;;